sensor_id;sensor_type;location;lat;lon;timestamp;temperature;humidity
52267;DHT22;38223;50.940;4.034;2023-06-10T00:00:00;23.30;92.50
52267;DHT22;38223;50.940;4.034;2023-06-10T00:02:41;23.40;92.60
52267;DHT22;38223;50.940;4.034;2023-06-10T00:05:18;23.40;92.60
52267;DHT22;38223;50.940;4.034;2023-06-10T00:07:56;23.40;92.50
52267;DHT22;38223;50.940;4.034;2023-06-10T00:10:31;23.40;92.50
52267;DHT22;38223;50.940;4.034;2023-06-10T00:13:05;23.40;92.60
52267;DHT22;38223;50.940;4.034;2023-06-10T00:15:41;23.30;92.70
52267;DHT22;38223;50.940;4.034;2023-06-10T00:18:16;23.20;93.00
52267;DHT22;38223;50.940;4.034;2023-06-10T00:20:53;23.10;93.10
52267;DHT22;38223;50.940;4.034;2023-06-10T00:23:35;23.20;93.10
52267;DHT22;38223;50.940;4.034;2023-06-10T00:26:17;23.20;93.10
52267;DHT22;38223;50.940;4.034;2023-06-10T00:28:50;23.20;93.20
52267;DHT22;38223;50.940;4.034;2023-06-10T00:31:48;23.20;93.20
52267;DHT22;38223;50.940;4.034;2023-06-10T00:34:21;23.30;93.10
52267;DHT22;38223;50.940;4.034;2023-06-10T00:37:02;23.30;93.20
52267;DHT22;38223;50.940;4.034;2023-06-10T00:39:39;23.30;93.20
52267;DHT22;38223;50.940;4.034;2023-06-10T00:42:15;23.20;93.40
52267;DHT22;38223;50.940;4.034;2023-06-10T00:44:47;23.30;93.40
52267;DHT22;38223;50.940;4.034;2023-06-10T00:47:26;23.20;93.30
52267;DHT22;38223;50.940;4.034;2023-06-10T00:50:14;23.10;93.60
52267;DHT22;38223;50.940;4.034;2023-06-10T00:52:55;23.00;93.90
52267;DHT22;38223;50.940;4.034;2023-06-10T00:55:26;22.90;94.00
52267;DHT22;38223;50.940;4.034;2023-06-10T00:58:10;22.80;94.10
52267;DHT22;38223;50.940;4.034;2023-06-10T01:00:45;22.90;94.10
52267;DHT22;38223;50.940;4.034;2023-06-10T01:03:28;22.70;94.30
52267;DHT22;38223;50.940;4.034;2023-06-10T01:06:14;22.70;94.40
52267;DHT22;38223;50.940;4.034;2023-06-10T01:11:55;22.70;94.40
52267;DHT22;38223;50.940;4.034;2023-06-10T01:14:30;22.60;94.60
52267;DHT22;38223;50.940;4.034;2023-06-10T01:17:03;22.60;94.70
52267;DHT22;38223;50.940;4.034;2023-06-10T01:19:44;22.60;94.70
52267;DHT22;38223;50.940;4.034;2023-06-10T01:22:26;22.60;94.70
52267;DHT22;38223;50.940;4.034;2023-06-10T01:25:01;22.60;94.70
52267;DHT22;38223;50.940;4.034;2023-06-10T01:27:39;22.60;94.80
52267;DHT22;38223;50.940;4.034;2023-06-10T01:30:26;22.50;94.80
52267;DHT22;38223;50.940;4.034;2023-06-10T01:33:05;22.60;94.80
52267;DHT22;38223;50.940;4.034;2023-06-10T01:35:50;22.60;94.80
52267;DHT22;38223;50.940;4.034;2023-06-10T01:38:32;22.40;95.00
52267;DHT22;38223;50.940;4.034;2023-06-10T01:41:09;22.40;95.30
52267;DHT22;38223;50.940;4.034;2023-06-10T01:43:42;22.50;94.90
52267;DHT22;38223;50.940;4.034;2023-06-10T01:46:11;22.60;94.80
52267;DHT22;38223;50.940;4.034;2023-06-10T01:48:53;22.60;94.80
52267;DHT22;38223;50.940;4.034;2023-06-10T01:51:26;22.40;94.90
52267;DHT22;38223;50.940;4.034;2023-06-10T01:54:04;22.50;95.00
52267;DHT22;38223;50.940;4.034;2023-06-10T01:56:45;22.50;94.90
52267;DHT22;38223;50.940;4.034;2023-06-10T01:59:18;22.40;95.10
52267;DHT22;38223;50.940;4.034;2023-06-10T02:01:53;22.40;95.10
52267;DHT22;38223;50.940;4.034;2023-06-10T02:04:26;22.40;95.10
52267;DHT22;38223;50.940;4.034;2023-06-10T02:06:54;22.60;95.10
52267;DHT22;38223;50.940;4.034;2023-06-10T02:09:36;22.60;94.90
52267;DHT22;38223;50.940;4.034;2023-06-10T02:12:09;22.60;94.90
52267;DHT22;38223;50.940;4.034;2023-06-10T02:14:49;22.60;94.90
52267;DHT22;38223;50.940;4.034;2023-06-10T02:17:20;22.50;95.20
52267;DHT22;38223;50.940;4.034;2023-06-10T02:19:56;22.40;95.40
52267;DHT22;38223;50.940;4.034;2023-06-10T02:22:30;22.30;95.60
52267;DHT22;38223;50.940;4.034;2023-06-10T02:25:13;22.30;95.70
52267;DHT22;38223;50.940;4.034;2023-06-10T02:27:54;22.30;95.80
52267;DHT22;38223;50.940;4.034;2023-06-10T02:30:42;22.40;95.70
52267;DHT22;38223;50.940;4.034;2023-06-10T02:33:20;22.30;95.80
52267;DHT22;38223;50.940;4.034;2023-06-10T02:38:45;22.20;96.10
52267;DHT22;38223;50.940;4.034;2023-06-10T02:41:20;22.30;96.10
52267;DHT22;38223;50.940;4.034;2023-06-10T02:43:54;22.50;95.90
52267;DHT22;38223;50.940;4.034;2023-06-10T02:46:28;22.60;95.60
52267;DHT22;38223;50.940;4.034;2023-06-10T02:49:04;22.60;95.80
52267;DHT22;38223;50.940;4.034;2023-06-10T02:51:49;22.60;95.90
52267;DHT22;38223;50.940;4.034;2023-06-10T02:54:22;22.40;96.10
52267;DHT22;38223;50.940;4.034;2023-06-10T02:57:03;22.30;96.40
52267;DHT22;38223;50.940;4.034;2023-06-10T02:59:38;22.20;96.60
52267;DHT22;38223;50.940;4.034;2023-06-10T03:02:15;22.20;96.80
52267;DHT22;38223;50.940;4.034;2023-06-10T03:04:53;22.20;96.90
52267;DHT22;38223;50.940;4.034;2023-06-10T03:07:35;22.00;97.20
52267;DHT22;38223;50.940;4.034;2023-06-10T03:10:12;22.00;97.50
52267;DHT22;38223;50.940;4.034;2023-06-10T03:12:44;21.90;97.60
52267;DHT22;38223;50.940;4.034;2023-06-10T03:15:33;22.00;97.60
52267;DHT22;38223;50.940;4.034;2023-06-10T03:18:07;22.00;97.70
52267;DHT22;38223;50.940;4.034;2023-06-10T03:20:51;21.90;97.90
52267;DHT22;38223;50.940;4.034;2023-06-10T03:23:31;21.80;98.30
52267;DHT22;38223;50.940;4.034;2023-06-10T03:26:11;21.70;98.60
52267;DHT22;38223;50.940;4.034;2023-06-10T03:28:44;21.70;98.70
52267;DHT22;38223;50.940;4.034;2023-06-10T03:31:28;21.80;98.60
52267;DHT22;38223;50.940;4.034;2023-06-10T03:34:10;21.70;98.80
52267;DHT22;38223;50.940;4.034;2023-06-10T03:36:43;21.80;98.90
52267;DHT22;38223;50.940;4.034;2023-06-10T03:39:22;21.90;98.80
52267;DHT22;38223;50.940;4.034;2023-06-10T03:41:57;21.70;99.10
52267;DHT22;38223;50.940;4.034;2023-06-10T03:44:46;21.60;99.50
52267;DHT22;38223;50.940;4.034;2023-06-10T03:47:18;21.50;99.80
52267;DHT22;38223;50.940;4.034;2023-06-10T03:50:00;21.60;99.90
52267;DHT22;38223;50.940;4.034;2023-06-10T03:52:33;21.60;99.80
52267;DHT22;38223;50.940;4.034;2023-06-10T03:55:03;21.60;99.90
52267;DHT22;38223;50.940;4.034;2023-06-10T03:57:39;21.70;99.90
52267;DHT22;38223;50.940;4.034;2023-06-10T04:00:16;21.80;99.80
52267;DHT22;38223;50.940;4.034;2023-06-10T04:02:57;21.90;99.60
52267;DHT22;38223;50.940;4.034;2023-06-10T04:05:37;21.80;99.80
52267;DHT22;38223;50.940;4.034;2023-06-10T04:08:13;21.80;99.90
52267;DHT22;38223;50.940;4.034;2023-06-10T04:10:58;21.80;99.90
52267;DHT22;38223;50.940;4.034;2023-06-10T04:13:34;21.80;99.90
52267;DHT22;38223;50.940;4.034;2023-06-10T04:16:20;21.80;99.90
52267;DHT22;38223;50.940;4.034;2023-06-10T04:19:08;21.90;99.90
52267;DHT22;38223;50.940;4.034;2023-06-10T04:21:45;21.90;99.90
52267;DHT22;38223;50.940;4.034;2023-06-10T04:24:20;21.60;99.90
52267;DHT22;38223;50.940;4.034;2023-06-10T04:26:57;21.50;99.90
52267;DHT22;38223;50.940;4.034;2023-06-10T04:29:28;21.50;99.90
52267;DHT22;38223;50.940;4.034;2023-06-10T04:32:02;21.50;99.90
52267;DHT22;38223;50.940;4.034;2023-06-10T04:34:38;21.40;99.90
52267;DHT22;38223;50.940;4.034;2023-06-10T04:37:12;21.30;99.90
52267;DHT22;38223;50.940;4.034;2023-06-10T04:39:46;21.30;99.90
52267;DHT22;38223;50.940;4.034;2023-06-10T04:42:21;21.30;99.90
52267;DHT22;38223;50.940;4.034;2023-06-10T04:44:59;21.40;99.90
52267;DHT22;38223;50.940;4.034;2023-06-10T04:47:38;21.40;99.90
52267;DHT22;38223;50.940;4.034;2023-06-10T04:50:19;21.60;99.90
52267;DHT22;38223;50.940;4.034;2023-06-10T04:52:51;21.50;99.90
52267;DHT22;38223;50.940;4.034;2023-06-10T04:55:28;21.40;99.90
52267;DHT22;38223;50.940;4.034;2023-06-10T04:58:02;21.40;99.90
52267;DHT22;38223;50.940;4.034;2023-06-10T05:00:34;21.40;99.90
52267;DHT22;38223;50.940;4.034;2023-06-10T05:03:11;21.40;99.90
52267;DHT22;38223;50.940;4.034;2023-06-10T05:05:51;21.40;99.90
52267;DHT22;38223;50.940;4.034;2023-06-10T05:08:32;21.40;99.90
52267;DHT22;38223;50.940;4.034;2023-06-10T05:11:06;21.40;99.90
52267;DHT22;38223;50.940;4.034;2023-06-10T05:13:39;21.50;99.90
52267;DHT22;38223;50.940;4.034;2023-06-10T05:16:18;21.70;99.90
52267;DHT22;38223;50.940;4.034;2023-06-10T05:18:56;21.70;99.90
52267;DHT22;38223;50.940;4.034;2023-06-10T05:21:32;21.50;99.90
52267;DHT22;38223;50.940;4.034;2023-06-10T05:24:11;21.30;99.90
52267;DHT22;38223;50.940;4.034;2023-06-10T05:26:44;21.30;99.90
52267;DHT22;38223;50.940;4.034;2023-06-10T05:29:35;21.30;99.90
52267;DHT22;38223;50.940;4.034;2023-06-10T05:32:12;21.30;99.90
52267;DHT22;38223;50.940;4.034;2023-06-10T05:34:48;21.30;99.90
52267;DHT22;38223;50.940;4.034;2023-06-10T05:37:24;21.40;99.90
52267;DHT22;38223;50.940;4.034;2023-06-10T05:39:56;21.40;99.90
52267;DHT22;38223;50.940;4.034;2023-06-10T05:42:52;21.50;99.90
52267;DHT22;38223;50.940;4.034;2023-06-10T05:45:27;21.60;99.90
52267;DHT22;38223;50.940;4.034;2023-06-10T05:48:05;21.50;99.90
52267;DHT22;38223;50.940;4.034;2023-06-10T05:53:32;21.40;99.90
52267;DHT22;38223;50.940;4.034;2023-06-10T05:56:10;21.40;99.90
52267;DHT22;38223;50.940;4.034;2023-06-10T05:58:43;21.40;99.90
52267;DHT22;38223;50.940;4.034;2023-06-10T06:01:26;21.50;99.90
52267;DHT22;38223;50.940;4.034;2023-06-10T06:03:57;21.40;99.90
52267;DHT22;38223;50.940;4.034;2023-06-10T06:06:38;21.50;99.90
52267;DHT22;38223;50.940;4.034;2023-06-10T06:09:13;21.60;99.90
52267;DHT22;38223;50.940;4.034;2023-06-10T06:11:53;21.80;99.90
52267;DHT22;38223;50.940;4.034;2023-06-10T06:14:36;21.70;99.90
52267;DHT22;38223;50.940;4.034;2023-06-10T06:17:16;21.70;99.90
52267;DHT22;38223;50.940;4.034;2023-06-10T06:19:48;21.70;99.90
52267;DHT22;38223;50.940;4.034;2023-06-10T06:22:22;21.70;99.90
52267;DHT22;38223;50.940;4.034;2023-06-10T06:24:55;21.60;99.90
52267;DHT22;38223;50.940;4.034;2023-06-10T06:27:31;21.70;99.90
52267;DHT22;38223;50.940;4.034;2023-06-10T06:30:05;21.90;99.90
52267;DHT22;38223;50.940;4.034;2023-06-10T06:32:39;22.00;99.90
52267;DHT22;38223;50.940;4.034;2023-06-10T06:35:13;22.00;99.90
52267;DHT22;38223;50.940;4.034;2023-06-10T06:37:52;22.00;99.90
52267;DHT22;38223;50.940;4.034;2023-06-10T06:40:24;22.20;99.90
52267;DHT22;38223;50.940;4.034;2023-06-10T06:43:05;22.20;99.90
52267;DHT22;38223;50.940;4.034;2023-06-10T06:45:40;22.20;99.90
52267;DHT22;38223;50.940;4.034;2023-06-10T06:48:16;22.20;99.90
52267;DHT22;38223;50.940;4.034;2023-06-10T06:50:56;22.10;99.90
52267;DHT22;38223;50.940;4.034;2023-06-10T06:53:31;22.10;99.90
52267;DHT22;38223;50.940;4.034;2023-06-10T06:56:13;22.30;99.90
52267;DHT22;38223;50.940;4.034;2023-06-10T06:58:46;22.50;99.90
52267;DHT22;38223;50.940;4.034;2023-06-10T07:01:21;22.50;99.90
52267;DHT22;38223;50.940;4.034;2023-06-10T07:03:55;22.40;99.90
52267;DHT22;38223;50.940;4.034;2023-06-10T07:06:31;22.50;99.90
52267;DHT22;38223;50.940;4.034;2023-06-10T07:09:07;22.50;99.90
52267;DHT22;38223;50.940;4.034;2023-06-10T07:11:44;22.60;99.90
52267;DHT22;38223;50.940;4.034;2023-06-10T07:14:14;22.70;99.90
52267;DHT22;38223;50.940;4.034;2023-06-10T07:16:46;22.80;99.90
52267;DHT22;38223;50.940;4.034;2023-06-10T07:19:18;22.90;99.90
52267;DHT22;38223;50.940;4.034;2023-06-10T07:21:54;22.90;99.90
52267;DHT22;38223;50.940;4.034;2023-06-10T07:24:23;23.00;99.90
52267;DHT22;38223;50.940;4.034;2023-06-10T07:26:57;23.00;99.90
52267;DHT22;38223;50.940;4.034;2023-06-10T07:29:26;23.00;99.90
52267;DHT22;38223;50.940;4.034;2023-06-10T07:31:56;23.10;99.90
52267;DHT22;38223;50.940;4.034;2023-06-10T07:34:31;23.30;99.90
52267;DHT22;38223;50.940;4.034;2023-06-10T07:37:01;23.40;99.90
52267;DHT22;38223;50.940;4.034;2023-06-10T07:39:31;23.30;99.90
52267;DHT22;38223;50.940;4.034;2023-06-10T07:42:00;23.40;99.90
52267;DHT22;38223;50.940;4.034;2023-06-10T07:44:34;23.40;99.90
52267;DHT22;38223;50.940;4.034;2023-06-10T07:47:05;23.50;99.90
52267;DHT22;38223;50.940;4.034;2023-06-10T07:49:35;23.70;99.90
52267;DHT22;38223;50.940;4.034;2023-06-10T07:52:07;23.70;99.90
52267;DHT22;38223;50.940;4.034;2023-06-10T07:54:39;23.70;99.90
52267;DHT22;38223;50.940;4.034;2023-06-10T07:57:12;23.80;99.90
52267;DHT22;38223;50.940;4.034;2023-06-10T07:59:47;23.80;99.90
52267;DHT22;38223;50.940;4.034;2023-06-10T08:02:18;23.90;99.90
52267;DHT22;38223;50.940;4.034;2023-06-10T08:04:47;24.00;99.90
52267;DHT22;38223;50.940;4.034;2023-06-10T08:07:21;24.10;99.90
52267;DHT22;38223;50.940;4.034;2023-06-10T08:09:54;24.20;99.90
52267;DHT22;38223;50.940;4.034;2023-06-10T08:12:26;24.30;99.90
52267;DHT22;38223;50.940;4.034;2023-06-10T08:15:02;24.50;99.90
52267;DHT22;38223;50.940;4.034;2023-06-10T08:17:34;24.70;99.90
52267;DHT22;38223;50.940;4.034;2023-06-10T08:20:08;24.70;99.90
52267;DHT22;38223;50.940;4.034;2023-06-10T08:22:40;24.70;99.90
52267;DHT22;38223;50.940;4.034;2023-06-10T08:25:11;24.80;99.90
52267;DHT22;38223;50.940;4.034;2023-06-10T08:27:45;24.90;99.90
52267;DHT22;38223;50.940;4.034;2023-06-10T08:30:18;25.00;99.80
52267;DHT22;38223;50.940;4.034;2023-06-10T08:32:51;25.20;99.30
52267;DHT22;38223;50.940;4.034;2023-06-10T08:35:25;25.20;99.30
52267;DHT22;38223;50.940;4.034;2023-06-10T08:37:58;25.40;98.50
52267;DHT22;38223;50.940;4.034;2023-06-10T08:40:30;25.60;97.90
52267;DHT22;38223;50.940;4.034;2023-06-10T08:43:07;25.70;97.80
52267;DHT22;38223;50.940;4.034;2023-06-10T08:45:41;25.80;97.50
52267;DHT22;38223;50.940;4.034;2023-06-10T08:48:12;25.80;97.00
52267;DHT22;38223;50.940;4.034;2023-06-10T08:50:45;25.90;95.40
52267;DHT22;38223;50.940;4.034;2023-06-10T08:53:22;25.90;95.70
52267;DHT22;38223;50.940;4.034;2023-06-10T08:55:53;26.00;96.30
52267;DHT22;38223;50.940;4.034;2023-06-10T08:58:24;26.10;95.90
52267;DHT22;38223;50.940;4.034;2023-06-10T09:01:00;26.20;95.10
52267;DHT22;38223;50.940;4.034;2023-06-10T09:03:36;26.30;94.20
52267;DHT22;38223;50.940;4.034;2023-06-10T09:06:09;26.30;93.90
52267;DHT22;38223;50.940;4.034;2023-06-10T09:08:41;26.40;93.40
52267;DHT22;38223;50.940;4.034;2023-06-10T09:11:11;26.40;92.50
52267;DHT22;38223;50.940;4.034;2023-06-10T09:13:42;26.60;92.00
52267;DHT22;38223;50.940;4.034;2023-06-10T09:16:16;26.60;92.20
52267;DHT22;38223;50.940;4.034;2023-06-10T09:18:49;26.60;92.70
52267;DHT22;38223;50.940;4.034;2023-06-10T09:21:22;26.50;92.80
52267;DHT22;38223;50.940;4.034;2023-06-10T09:24:08;26.70;91.80
52267;DHT22;38223;50.940;4.034;2023-06-10T09:26:40;26.80;91.30
52267;DHT22;38223;50.940;4.034;2023-06-10T09:29:15;26.90;91.00
52267;DHT22;38223;50.940;4.034;2023-06-10T09:31:50;26.80;90.70
52267;DHT22;38223;50.940;4.034;2023-06-10T09:34:35;26.90;90.60
52267;DHT22;38223;50.940;4.034;2023-06-10T09:37:13;27.00;90.30
52267;DHT22;38223;50.940;4.034;2023-06-10T09:39:53;27.00;90.00
52267;DHT22;38223;50.940;4.034;2023-06-10T09:42:26;27.00;88.90
52267;DHT22;38223;50.940;4.034;2023-06-10T09:45:02;27.10;88.90
52267;DHT22;38223;50.940;4.034;2023-06-10T09:47:39;27.20;88.50
52267;DHT22;38223;50.940;4.034;2023-06-10T09:50:21;27.20;88.90
52267;DHT22;38223;50.940;4.034;2023-06-10T09:52:59;27.20;88.20
52267;DHT22;38223;50.940;4.034;2023-06-10T09:55:37;27.20;88.40
52267;DHT22;38223;50.940;4.034;2023-06-10T10:00:58;27.40;85.90
52267;DHT22;38223;50.940;4.034;2023-06-10T10:03:31;27.50;86.50
52267;DHT22;38223;50.940;4.034;2023-06-10T10:06:04;27.60;85.70
52267;DHT22;38223;50.940;4.034;2023-06-10T10:08:33;27.80;85.40
52267;DHT22;38223;50.940;4.034;2023-06-10T10:11:16;27.90;84.00
52267;DHT22;38223;50.940;4.034;2023-06-10T10:14:05;27.80;83.60
52267;DHT22;38223;50.940;4.034;2023-06-10T10:16:44;27.80;82.00
52267;DHT22;38223;50.940;4.034;2023-06-10T10:19:37;27.70;82.60
52267;DHT22;38223;50.940;4.034;2023-06-10T10:22:37;27.80;83.50
52267;DHT22;38223;50.940;4.034;2023-06-10T10:25:06;28.00;84.10
52267;DHT22;38223;50.940;4.034;2023-06-10T10:27:42;28.30;83.00
52267;DHT22;38223;50.940;4.034;2023-06-10T10:30:18;28.20;81.20
52267;DHT22;38223;50.940;4.034;2023-06-10T10:32:59;28.20;81.40
52267;DHT22;38223;50.940;4.034;2023-06-10T10:35:32;28.40;77.80
52267;DHT22;38223;50.940;4.034;2023-06-10T10:38:16;28.50;76.90
52267;DHT22;38223;50.940;4.034;2023-06-10T10:41:04;28.30;77.30
52267;DHT22;38223;50.940;4.034;2023-06-10T10:43:48;28.10;77.90
52267;DHT22;38223;50.940;4.034;2023-06-10T10:46:23;28.10;78.00
52267;DHT22;38223;50.940;4.034;2023-06-10T10:48:55;28.20;78.00
52267;DHT22;38223;50.940;4.034;2023-06-10T10:51:33;28.30;77.80
52267;DHT22;38223;50.940;4.034;2023-06-10T10:54:16;28.30;76.90
52267;DHT22;38223;50.940;4.034;2023-06-10T10:57:12;28.40;75.60
52267;DHT22;38223;50.940;4.034;2023-06-10T11:00:04;28.60;73.50
52267;DHT22;38223;50.940;4.034;2023-06-10T11:02:47;28.60;72.20
52267;DHT22;38223;50.940;4.034;2023-06-10T11:05:31;28.70;70.40
52267;DHT22;38223;50.940;4.034;2023-06-10T11:07:57;28.60;70.80
52267;DHT22;38223;50.940;4.034;2023-06-10T11:10:35;28.60;72.00
52267;DHT22;38223;50.940;4.034;2023-06-10T11:13:20;28.80;71.50
52267;DHT22;38223;50.940;4.034;2023-06-10T11:16:02;29.00;69.10
52267;DHT22;38223;50.940;4.034;2023-06-10T11:18:48;29.00;65.90
52267;DHT22;38223;50.940;4.034;2023-06-10T11:21:34;29.20;67.00
52267;DHT22;38223;50.940;4.034;2023-06-10T11:24:17;29.40;66.50
52267;DHT22;38223;50.940;4.034;2023-06-10T11:27:18;29.30;65.10
52267;DHT22;38223;50.940;4.034;2023-06-10T11:30:17;29.50;63.30
52267;DHT22;38223;50.940;4.034;2023-06-10T11:32:57;29.80;62.40
52267;DHT22;38223;50.940;4.034;2023-06-10T11:35:36;29.80;65.10
52267;DHT22;38223;50.940;4.034;2023-06-10T11:38:07;29.60;66.90
52267;DHT22;38223;50.940;4.034;2023-06-10T11:40:48;29.50;67.20
52267;DHT22;38223;50.940;4.034;2023-06-10T11:43:19;29.70;64.50
52267;DHT22;38223;50.940;4.034;2023-06-10T11:46:00;29.80;63.10
52267;DHT22;38223;50.940;4.034;2023-06-10T11:48:33;30.10;62.00
52267;DHT22;38223;50.940;4.034;2023-06-10T11:51:25;30.40;61.80
52267;DHT22;38223;50.940;4.034;2023-06-10T11:54:18;30.20;63.00
52267;DHT22;38223;50.940;4.034;2023-06-10T11:57:08;30.20;64.20
52267;DHT22;38223;50.940;4.034;2023-06-10T11:59:53;30.10;63.70
52267;DHT22;38223;50.940;4.034;2023-06-10T12:02:26;30.00;63.20
52267;DHT22;38223;50.940;4.034;2023-06-10T12:05:09;30.00;62.70
52267;DHT22;38223;50.940;4.034;2023-06-10T12:07:30;29.90;62.30
52267;DHT22;38223;50.940;4.034;2023-06-10T12:10:05;30.20;61.60
52267;DHT22;38223;50.940;4.034;2023-06-10T12:12:40;30.10;59.70
52267;DHT22;38223;50.940;4.034;2023-06-10T12:15:09;30.20;60.00
52267;DHT22;38223;50.940;4.034;2023-06-10T12:17:42;30.10;59.50
52267;DHT22;38223;50.940;4.034;2023-06-10T12:20:28;30.00;59.70
52267;DHT22;38223;50.940;4.034;2023-06-10T12:22:59;30.10;59.60
52267;DHT22;38223;50.940;4.034;2023-06-10T12:25:32;29.90;59.20
52267;DHT22;38223;50.940;4.034;2023-06-10T12:28:03;29.90;59.20
52267;DHT22;38223;50.940;4.034;2023-06-10T12:30:34;29.80;59.10
52267;DHT22;38223;50.940;4.034;2023-06-10T12:33:08;29.80;58.90
52267;DHT22;38223;50.940;4.034;2023-06-10T12:35:53;29.70;59.20
52267;DHT22;38223;50.940;4.034;2023-06-10T12:38:25;30.10;59.10
52267;DHT22;38223;50.940;4.034;2023-06-10T12:41:07;30.30;58.30
52267;DHT22;38223;50.940;4.034;2023-06-10T12:43:36;30.50;57.30
52267;DHT22;38223;50.940;4.034;2023-06-10T12:46:11;30.20;57.90
52267;DHT22;38223;50.940;4.034;2023-06-10T12:48:50;30.10;58.10
52267;DHT22;38223;50.940;4.034;2023-06-10T12:51:23;30.40;58.00
52267;DHT22;38223;50.940;4.034;2023-06-10T12:53:52;30.50;58.10
52267;DHT22;38223;50.940;4.034;2023-06-10T12:56:21;30.40;57.70
52267;DHT22;38223;50.940;4.034;2023-06-10T12:58:54;30.20;58.20
52267;DHT22;38223;50.940;4.034;2023-06-10T13:01:26;30.20;57.90
52267;DHT22;38223;50.940;4.034;2023-06-10T13:04:01;30.20;57.80
52267;DHT22;38223;50.940;4.034;2023-06-10T13:06:29;30.30;58.20
52267;DHT22;38223;50.940;4.034;2023-06-10T13:09:00;30.20;58.30
52267;DHT22;38223;50.940;4.034;2023-06-10T13:11:30;30.30;58.50
52267;DHT22;38223;50.940;4.034;2023-06-10T13:14:00;30.40;59.10
52267;DHT22;38223;50.940;4.034;2023-06-10T13:16:32;30.50;59.00
52267;DHT22;38223;50.940;4.034;2023-06-10T13:19:06;30.40;57.60
52267;DHT22;38223;50.940;4.034;2023-06-10T13:21:38;30.20;58.30
52267;DHT22;38223;50.940;4.034;2023-06-10T13:24:07;30.20;58.50
52267;DHT22;38223;50.940;4.034;2023-06-10T13:26:43;30.20;57.90
52267;DHT22;38223;50.940;4.034;2023-06-10T13:29:12;30.20;57.50
52267;DHT22;38223;50.940;4.034;2023-06-10T13:31:47;30.30;57.10
52267;DHT22;38223;50.940;4.034;2023-06-10T13:34:16;30.40;57.50
52267;DHT22;38223;50.940;4.034;2023-06-10T13:36:43;30.60;57.50
52267;DHT22;38223;50.940;4.034;2023-06-10T13:39:14;30.60;57.60
52267;DHT22;38223;50.940;4.034;2023-06-10T13:41:43;30.50;58.20
52267;DHT22;38223;50.940;4.034;2023-06-10T13:44:13;30.50;56.90
52267;DHT22;38223;50.940;4.034;2023-06-10T13:46:45;30.40;57.10
52267;DHT22;38223;50.940;4.034;2023-06-10T13:49:15;30.40;56.90
52267;DHT22;38223;50.940;4.034;2023-06-10T13:51:50;30.30;56.70
52267;DHT22;38223;50.940;4.034;2023-06-10T13:54:18;30.60;56.60
52267;DHT22;38223;50.940;4.034;2023-06-10T13:56:46;30.70;56.50
52267;DHT22;38223;50.940;4.034;2023-06-10T13:59:16;30.50;56.00
52267;DHT22;38223;50.940;4.034;2023-06-10T14:01:51;30.80;56.50
52267;DHT22;38223;50.940;4.034;2023-06-10T14:04:20;30.90;56.10
52267;DHT22;38223;50.940;4.034;2023-06-10T14:06:50;30.70;56.00
52267;DHT22;38223;50.940;4.034;2023-06-10T14:09:21;30.40;56.20
52267;DHT22;38223;50.940;4.034;2023-06-10T14:11:49;30.40;56.70
52267;DHT22;38223;50.940;4.034;2023-06-10T14:14:21;30.80;56.30
52267;DHT22;38223;50.940;4.034;2023-06-10T14:17:08;31.40;56.00
52267;DHT22;38223;50.940;4.034;2023-06-10T14:19:39;31.50;55.60
52267;DHT22;38223;50.940;4.034;2023-06-10T14:22:13;31.40;55.50
52267;DHT22;38223;50.940;4.034;2023-06-10T14:24:43;31.30;55.50
52267;DHT22;38223;50.940;4.034;2023-06-10T14:27:22;31.10;55.20
52267;DHT22;38223;50.940;4.034;2023-06-10T14:29:57;31.10;56.30
52267;DHT22;38223;50.940;4.034;2023-06-10T14:32:26;31.00;55.90
52267;DHT22;38223;50.940;4.034;2023-06-10T14:35:00;30.80;56.20
52267;DHT22;38223;50.940;4.034;2023-06-10T14:37:28;30.80;55.90
52267;DHT22;38223;50.940;4.034;2023-06-10T14:40:12;30.50;55.50
52267;DHT22;38223;50.940;4.034;2023-06-10T14:42:59;30.40;56.10
52267;DHT22;38223;50.940;4.034;2023-06-10T14:45:38;30.40;55.90
52267;DHT22;38223;50.940;4.034;2023-06-10T14:48:14;30.60;55.80
52267;DHT22;38223;50.940;4.034;2023-06-10T14:50:50;30.60;55.80
52267;DHT22;38223;50.940;4.034;2023-06-10T14:53:19;30.70;55.50
52267;DHT22;38223;50.940;4.034;2023-06-10T14:55:49;30.80;55.30
52267;DHT22;38223;50.940;4.034;2023-06-10T14:58:18;30.80;55.50
52267;DHT22;38223;50.940;4.034;2023-06-10T15:00:45;30.90;55.60
52267;DHT22;38223;50.940;4.034;2023-06-10T15:03:13;30.90;55.40
52267;DHT22;38223;50.940;4.034;2023-06-10T15:05:41;30.90;55.00
52267;DHT22;38223;50.940;4.034;2023-06-10T15:08:11;31.10;54.60
52267;DHT22;38223;50.940;4.034;2023-06-10T15:10:44;31.10;54.70
52267;DHT22;38223;50.940;4.034;2023-06-10T15:13:22;31.10;54.30
52267;DHT22;38223;50.940;4.034;2023-06-10T15:15:55;31.10;54.40
52267;DHT22;38223;50.940;4.034;2023-06-10T15:18:28;30.80;55.20
52267;DHT22;38223;50.940;4.034;2023-06-10T15:21:18;30.80;55.30
52267;DHT22;38223;50.940;4.034;2023-06-10T15:23:59;30.90;55.20
52267;DHT22;38223;50.940;4.034;2023-06-10T15:26:31;31.20;54.50
52267;DHT22;38223;50.940;4.034;2023-06-10T15:29:09;31.20;55.00
52267;DHT22;38223;50.940;4.034;2023-06-10T15:31:46;30.90;55.00
52267;DHT22;38223;50.940;4.034;2023-06-10T15:34:24;30.60;54.70
52267;DHT22;38223;50.940;4.034;2023-06-10T15:36:57;30.30;55.10
52267;DHT22;38223;50.940;4.034;2023-06-10T15:39:44;30.40;55.20
52267;DHT22;38223;50.940;4.034;2023-06-10T15:42:18;30.50;54.70
52267;DHT22;38223;50.940;4.034;2023-06-10T15:44:56;30.50;55.10
52267;DHT22;38223;50.940;4.034;2023-06-10T15:47:33;30.50;55.30
52267;DHT22;38223;50.940;4.034;2023-06-10T15:50:09;30.30;55.60
52267;DHT22;38223;50.940;4.034;2023-06-10T15:52:44;30.30;55.00
52267;DHT22;38223;50.940;4.034;2023-06-10T15:55:16;30.30;55.00
52267;DHT22;38223;50.940;4.034;2023-06-10T15:57:57;30.30;55.20
52267;DHT22;38223;50.940;4.034;2023-06-10T16:00:44;30.30;55.20
52267;DHT22;38223;50.940;4.034;2023-06-10T16:03:18;30.30;54.90
52267;DHT22;38223;50.940;4.034;2023-06-10T16:05:55;30.20;54.60
52267;DHT22;38223;50.940;4.034;2023-06-10T16:08:27;30.20;55.00
52267;DHT22;38223;50.940;4.034;2023-06-10T16:11:01;30.20;54.90
52267;DHT22;38223;50.940;4.034;2023-06-10T16:13:33;30.20;55.00
52267;DHT22;38223;50.940;4.034;2023-06-10T16:16:08;30.60;54.30
52267;DHT22;38223;50.940;4.034;2023-06-10T16:18:40;30.60;53.80
52267;DHT22;38223;50.940;4.034;2023-06-10T16:21:15;30.50;54.60
52267;DHT22;38223;50.940;4.034;2023-06-10T16:23:44;30.40;54.80
52267;DHT22;38223;50.940;4.034;2023-06-10T16:26:15;30.30;55.30
52267;DHT22;38223;50.940;4.034;2023-06-10T16:28:43;30.40;55.10
52267;DHT22;38223;50.940;4.034;2023-06-10T16:31:15;30.30;54.60
52267;DHT22;38223;50.940;4.034;2023-06-10T16:33:42;30.30;54.80
52267;DHT22;38223;50.940;4.034;2023-06-10T16:36:15;30.30;54.50